Time;durP1;ratioP1;P1;durP2;ratioP2;P2;SDS_P1;SDS_P2;PMS_P1;PMS_P2;Temp;Humidity;BMP_temperature;BMP_pressure;BME280_temperature;BME280_humidity;BME280_pressure;Samples;Min_cycle;Max_cycle;Signal;HPM_P1;HPM_P2
2021/05/18 00:02:15;;;;;;;44.00;20.55;;;;;;;9.39;100.00;100915.16;5103768;28;20060;-63
2021/05/18 00:04:41;;;;;;;42.95;20.23;;;;;;;9.38;100.00;100916.00;5104561;28;20402;-63
2021/05/18 00:07:11;;;;;;;44.15;20.63;;;;;;;9.38;100.00;100916.00;5103162;27;20043;-63
2021/05/18 00:12:20;;;;;;;43.15;19.77;;;;;;;9.30;100.00;100922.94;5101765;28;20089;-63
2021/05/18 00:14:45;;;;;;;43.10;19.83;;;;;;;9.25;100.00;100920.25;5105895;28;20016;-63
2021/05/18 00:17:11;;;;;;;41.05;19.92;;;;;;;9.25;100.00;100919.38;5102687;28;20039;-73
2021/05/18 00:19:36;;;;;;;40.10;19.80;;;;;;;9.20;99.85;100915.81;5106505;28;20034;-70
2021/05/18 00:22:01;;;;;;;40.30;19.92;;;;;;;9.16;98.24;100916.63;5103559;28;20023;-63
2021/05/18 00:24:27;;;;;;;41.45;20.30;;;;;;;9.18;98.01;100912.28;5104445;28;20020;-63
2021/05/18 00:26:52;;;;;;;39.28;20.15;;;;;;;9.20;97.03;100914.06;5105117;28;20038;-65
2021/05/18 00:29:18;;;;;;;42.53;20.90;;;;;;;9.17;97.74;100913.13;5103044;28;20027;-63
2021/05/18 00:31:44;;;;;;;43.75;22.05;;;;;;;9.18;97.05;100907.00;5105876;28;20055;-63
2021/05/18 00:34:09;;;;;;;42.17;21.40;;;;;;;9.15;96.61;100914.88;5102603;28;20074;-63
2021/05/18 00:36:34;;;;;;;47.05;23.23;;;;;;;9.15;99.28;100912.25;5105313;28;20440;-63
2021/05/18 00:39:00;;;;;;;44.05;23.50;;;;;;;9.10;99.62;100911.28;5103712;28;20043;-67
2021/05/18 00:41:25;;;;;;;46.58;24.77;;;;;;;9.05;100.00;100920.03;5104248;28;20027;-66
2021/05/18 00:43:51;;;;;;;44.03;24.75;;;;;;;9.01;100.00;100912.97;5104812;28;20031;-70
2021/05/18 00:46:18;;;;;;;45.80;24.73;;;;;;;8.97;100.00;100913.81;5102771;28;20035;-66
2021/05/18 00:48:56;;;;;;;47.60;25.70;;;;;;;8.91;100.00;100924.25;5105649;28;20062;-65
2021/05/18 00:51:21;;;;;;;49.40;25.77;;;;;;;8.85;100.00;100921.53;5101010;28;20024;-65
2021/05/18 00:53:47;;;;;;;48.55;28.20;;;;;;;8.78;100.00;100924.97;5104904;28;20073;-68
2021/05/18 00:59:05;;;;;;;56.67;32.22;;;;;;;8.64;100.00;100930.94;5050447;28;20187;-63
2021/05/18 01:01:32;;;;;;;66.22;37.88;;;;;;;8.53;100.00;100929.91;5050936;28;20492;-70
2021/05/18 01:03:59;;;;;;;79.15;39.75;;;;;;;8.44;100.00;100924.47;5050762;28;20068;-66
2021/05/18 01:09:13;;;;;;;85.30;41.88;;;;;;;8.29;100.00;100933.91;5050980;28;20052;-69
2021/05/18 01:11:41;;;;;;;85.65;42.00;;;;;;;8.29;100.00;100923.38;5051037;28;20040;-70
2021/05/18 01:14:13;;;;;;;104.63;45.47;;;;;;;8.40;100.00;100922.66;5050842;28;20148;-70
2021/05/18 01:16:42;;;;;;;88.67;43.33;;;;;;;8.30;100.00;100925.16;5050655;28;20037;-69
2021/05/18 01:19:08;;;;;;;88.00;43.47;;;;;;;8.37;100.00;100928.75;5050993;28;20482;-69
2021/05/18 01:21:34;;;;;;;92.30;45.22;;;;;;;8.30;100.00;100930.44;5050725;28;20032;-69
2021/05/18 01:23:59;;;;;;;91.65;44.60;;;;;;;8.30;100.00;100925.16;5050693;28;20041;-69
2021/05/18 01:26:27;;;;;;;92.78;44.13;;;;;;;8.35;100.00;100923.47;5050693;28;20032;-69
2021/05/18 01:28:52;;;;;;;99.45;46.25;;;;;;;8.38;100.00;100933.19;5050288;28;20128;-70
2021/05/18 01:31:22;;;;;;;90.00;44.97;;;;;;;8.38;100.00;100934.03;5050487;28;20060;-70
2021/05/18 01:33:48;;;;;;;93.40;45.13;;;;;;;8.42;100.00;100935.00;5050666;28;20021;-70
2021/05/18 01:36:16;;;;;;;100.38;46.88;;;;;;;8.45;100.00;100932.44;5086608;28;20088;-70
2021/05/18 01:38:52;;;;;;;102.72;46.55;;;;;;;8.41;100.00;100932.34;5097162;28;20099;-70
2021/05/18 01:44:02;;;;;;;102.40;46.75;;;;;;;8.38;100.00;100938.44;5102708;28;20035;-70
2021/05/18 01:46:28;;;;;;;98.30;45.88;;;;;;;8.37;100.00;100937.56;5103061;28;20027;-69
2021/05/18 01:49:00;;;;;;;99.07;45.42;;;;;;;8.41;100.00;100938.47;5103254;28;20028;-70
2021/05/18 01:51:31;;;;;;;100.72;46.08;;;;;;;8.38;100.00;100938.44;5102943;28;20102;-69
2021/05/18 01:53:58;;;;;;;102.72;46.53;;;;;;;8.40;100.00;100939.34;5103083;28;20032;-69
2021/05/18 01:56:42;;;;;;;99.45;46.65;;;;;;;8.38;100.00;100941.06;5102433;28;20382;-70
2021/05/18 01:59:10;;;;;;;97.43;45.45;;;;;;;8.40;100.00;100941.09;5101657;28;20032;-63
2021/05/18 02:01:36;;;;;;;108.68;46.35;;;;;;;8.43;100.00;100936.78;5104338;28;20027;-63
2021/05/18 02:04:05;;;;;;;114.55;47.88;;;;;;;8.47;100.00;100932.44;5102369;28;20090;-63
2021/05/18 02:06:31;;;;;;;113.40;47.38;;;;;;;8.46;100.00;100931.59;5102996;28;20052;-63
2021/05/18 02:08:58;;;;;;;105.15;47.28;;;;;;;8.45;100.00;100944.72;5102680;28;20034;-63
2021/05/18 02:11:24;;;;;;;109.63;47.72;;;;;;;8.42;100.00;100940.25;5102686;28;20020;-63
2021/05/18 02:13:51;;;;;;;102.50;46.83;;;;;;;8.42;100.00;100944.63;5103891;28;20039;-63
2021/05/18 02:16:31;;;;;;;109.32;48.78;;;;;;;8.42;100.00;100942.00;5101087;28;20460;-63
2021/05/18 02:19:13;;;;;;;115.72;49.17;;;;;;;8.38;100.00;100943.72;5103125;28;20028;-63
2021/05/18 02:26:59;;;;;;;118.45;47.45;;;;;;;8.44;100.00;100942.91;5102463;28;20208;-63
2021/05/18 02:29:25;;;;;;;110.70;47.28;;;;;;;8.43;100.00;100954.31;5102335;28;20141;-63
2021/05/18 02:31:54;;;;;;;107.68;46.90;;;;;;;8.44;100.00;100953.47;5103582;28;20106;-63
2021/05/18 02:34:19;;;;;;;109.95;47.40;;;;;;;8.47;100.00;100949.13;5101506;28;20379;-63
2021/05/18 02:36:44;;;;;;;110.10;46.88;;;;;;;8.47;100.00;100945.63;5104204;28;20024;-63
2021/05/18 02:39:10;;;;;;;113.55;46.67;;;;;;;8.47;100.00;100956.16;5096773;28;20028;-63
2021/05/18 02:41:35;;;;;;;114.60;46.10;;;;;;;8.42;100.00;100956.06;5103704;28;20466;-63
2021/05/18 02:44:06;;;;;;;116.78;49.47;;;;;;;8.43;100.00;100959.56;5101856;28;20386;-71
2021/05/18 02:49:17;;;;;;;125.57;52.50;;;;;;;8.38;100.00;100951.63;5097408;28;20059;-70
2021/05/18 02:51:45;;;;;;;127.40;53.10;;;;;;;8.35;100.00;100952.44;5106582;28;20028;-67
2021/05/18 02:54:13;;;;;;;126.97;53.92;;;;;;;8.36;100.00;100959.50;5100236;28;20051;-71
2021/05/18 02:56:48;;;;;;;121.60;53.58;;;;;;;8.36;100.00;100955.97;5107756;28;20023;-71
2021/05/18 02:59:18;;;;;;;121.78;56.00;;;;;;;8.36;100.00;100962.13;5100663;28;20031;-71
2021/05/18 03:01:57;;;;;;;124.00;53.97;;;;;;;8.34;100.00;100950.69;5100627;28;20042;-71
2021/05/18 03:04:23;;;;;;;128.00;54.65;;;;;;;8.35;100.00;100955.06;5102604;28;20111;-71
2021/05/18 03:06:49;;;;;;;124.43;52.78;;;;;;;8.35;100.00;100959.47;5106868;28;20534;-73
2021/05/18 03:09:16;;;;;;;130.27;53.45;;;;;;;8.38;100.00;100959.50;5104119;28;20024;-71
2021/05/18 03:11:43;;;;;;;136.25;57.22;;;;;;;8.37;100.00;100958.66;5107727;28;20051;-70
2021/05/18 03:14:10;;;;;;;127.50;54.75;;;;;;;8.35;100.00;100957.72;5103932;28;20028;-71
2021/05/18 03:16:38;;;;;;;134.38;55.72;;;;;;;8.37;100.00;100957.72;5107219;28;20114;-71
2021/05/18 03:19:04;;;;;;;133.73;54.83;;;;;;;8.37;100.00;100957.72;5104875;28;20027;-71
2021/05/18 03:21:30;;;;;;;135.65;55.53;;;;;;;8.43;100.00;100967.47;5106032;28;20385;-71
2021/05/18 03:23:56;;;;;;;143.52;55.40;;;;;;;8.41;100.00;100959.56;5106001;28;20099;-71
2021/05/18 03:26:22;;;;;;;138.45;55.42;;;;;;;8.40;100.00;100970.94;5104257;28;20032;-72
2021/05/18 03:28:54;;;;;;;144.27;55.88;;;;;;;8.37;100.00;100969.19;5106825;28;20019;-71
2021/05/18 03:36:47;;;;;;;145.80;58.08;;;;;;;8.43;100.00;100962.22;5101110;28;20054;-69
2021/05/18 03:39:13;;;;;;;143.93;55.83;;;;;;;8.39;100.00;100963.94;5106911;28;20505;-70
2021/05/18 03:41:53;;;;;;;144.27;56.47;;;;;;;8.36;100.00;100972.66;5103498;28;20031;-71
2021/05/18 03:44:27;;;;;;;145.77;58.15;;;;;;;8.38;100.00;100964.78;5101119;28;20024;-70
2021/05/18 04:02:43;;;;;;;146.98;59.33;;;;;;;8.44;100.00;100979.81;5104128;28;20137;-69
2021/05/18 04:10:52;;;;;;;153.70;60.40;;;;;;;8.45;100.00;100981.63;5103500;28;20395;-66
2021/05/18 04:18:28;;;;;;;167.45;66.00;;;;;;;8.41;100.00;100988.53;5102368;28;20038;-69
2021/05/18 04:21:06;;;;;;;165.77;62.45;;;;;;;8.43;100.00;100993.81;5105053;28;20019;-68
2021/05/18 04:39:45;;;;;;;156.30;62.55;;;;;;;8.48;100.00;101008.88;5100085;28;20039;-63
2021/05/18 04:53:10;;;;;;;151.15;57.80;;;;;;;8.57;100.00;101018.69;5100763;28;20039;-64
2021/05/18 05:01:10;;;;;;;155.23;59.63;;;;;;;8.75;100.00;101020.69;5103400;28;20043;-67
2021/05/18 05:04:05;;;;;;;152.05;57.70;;;;;;;8.80;100.00;101026.06;5104913;28;20393;-72
2021/05/18 05:14:33;;;;;;;139.45;55.90;;;;;;;8.95;100.00;101028.88;5102314;28;20065;-69
2021/05/18 05:16:58;;;;;;;145.05;55.63;;;;;;;8.97;100.00;101034.19;5103075;28;20024;-64
2021/05/18 05:19:27;;;;;;;142.00;56.78;;;;;;;8.95;100.00;101039.44;5104179;28;20110;-64
2021/05/18 05:21:53;;;;;;;131.85;54.92;;;;;;;8.99;100.00;101043.91;5102182;28;20474;-71
2021/05/18 05:24:19;;;;;;;126.80;53.33;;;;;;;8.96;100.00;101043.84;5104323;28;20092;-70
2021/05/18 05:26:46;;;;;;;133.48;54.50;;;;;;;8.99;100.00;101043.91;5101678;28;20073;-69
2021/05/18 05:29:11;;;;;;;138.15;54.97;;;;;;;9.03;100.00;101032.53;5104866;28;20027;-72
2021/05/18 05:31:38;;;;;;;131.13;53.53;;;;;;;9.06;100.00;101029.06;5097678;28;20023;-64
2021/05/18 05:34:04;;;;;;;124.32;50.78;;;;;;;9.07;100.00;101033.44;5092380;28;20028;-65
2021/05/18 05:36:29;;;;;;;128.20;53.53;;;;;;;9.09;100.00;101039.66;5091556;28;20047;-65
2021/05/18 05:39:02;;;;;;;133.38;56.45;;;;;;;9.06;100.00;101035.22;5092453;28;20016;-65
2021/05/18 05:41:27;;;;;;;131.43;52.92;;;;;;;9.08;100.00;101038.75;5091533;28;20039;-70
2021/05/18 05:43:52;;;;;;;131.20;54.92;;;;;;;9.12;100.00;101037.03;5092197;28;20020;-65
2021/05/18 05:46:18;;;;;;;142.90;57.88;;;;;;;9.13;100.00;101040.56;5091283;28;20024;-64
2021/05/18 05:48:43;;;;;;;139.05;55.13;;;;;;;9.19;100.00;101043.31;5091433;28;20028;-65
2021/05/18 05:51:08;;;;;;;121.78;53.55;;;;;;;9.24;100.00;101044.22;5090707;28;20028;-65
2021/05/18 05:53:34;;;;;;;124.40;52.42;;;;;;;9.34;100.00;101046.13;5090906;28;20386;-65
2021/05/18 05:55:59;;;;;;;120.15;53.22;;;;;;;9.26;100.00;101042.47;5092457;28;20072;-65
2021/05/18 05:58:28;;;;;;;129.18;55.17;;;;;;;9.29;100.00;101045.19;5091110;28;20168;-65
2021/05/18 06:00:53;;;;;;;124.00;53.08;;;;;;;9.30;100.00;101051.34;5091436;28;20063;-64
2021/05/18 06:03:18;;;;;;;126.65;54.60;;;;;;;9.33;100.00;101052.25;5092271;28;20060;-68
2021/05/18 06:05:44;;;;;;;132.02;56.13;;;;;;;9.42;100.00;101057.66;5090835;28;20035;-64
2021/05/18 06:08:09;;;;;;;119.65;55.75;;;;;;;9.47;100.00;101057.72;5093022;28;20020;-65
2021/05/18 06:10:41;;;;;;;125.30;55.92;;;;;;;9.57;100.00;101053.44;5090697;28;20518;-65
2021/05/18 06:13:18;;;;;;;123.55;54.83;;;;;;;9.67;100.00;101068.50;5090380;28;20020;-66
2021/05/18 06:48:48;;;;;;;71.32;40.30;;;;;;;10.07;100.00;101089.19;5011840;28;20037;-64
2021/05/18 06:51:13;;;;;;;73.32;41.63;;;;;;;10.26;100.00;101093.75;5011781;28;20076;-64
2021/05/18 06:53:39;;;;;;;66.32;39.55;;;;;;;10.28;100.00;101096.41;5011730;28;20061;-65
2021/05/18 06:56:05;;;;;;;61.72;36.08;;;;;;;10.41;100.00;101103.66;5012031;28;20425;-65
2021/05/18 07:00:06;;;;;;;66.00;40.92;;;;;;;10.53;100.00;101102.88;5012047;28;20045;-64
2021/05/18 07:01:20;;;;;;;61.13;35.85;;;;;;;10.67;100.00;101104.75;5009442;28;20053;-63
2021/05/18 07:03:52;;;;;;;56.72;35.03;;;;;;;10.82;100.00;101105.75;5011668;28;20042;-63
2021/05/18 07:08:58;;;;;;;47.65;30.55;;;;;;;10.81;96.51;101125.13;5030518;28;20098;-63
2021/05/18 07:11:25;;;;;;;48.13;28.95;;;;;;;10.89;98.50;101129.59;5059758;28;20064;-63
2021/05/18 07:13:51;;;;;;;47.30;29.92;;;;;;;11.06;94.22;101130.59;5061631;28;20032;-63
2021/05/18 07:16:17;;;;;;;48.65;29.95;;;;;;;11.12;93.28;101140.34;5059302;28;20063;-63
2021/05/18 07:18:42;;;;;;;43.22;27.17;;;;;;;11.24;93.08;101132.50;5094197;28;20082;-64
2021/05/18 07:21:07;;;;;;;45.25;28.27;;;;;;;11.23;89.04;101135.13;5094226;28;20463;-64
2021/05/18 07:23:34;;;;;;;43.45;27.80;;;;;;;11.26;90.95;101136.03;5094410;28;20418;-64
2021/05/18 07:25:59;;;;;;;44.50;27.75;;;;;;;11.41;93.76;101142.28;5100548;28;20034;-64
2021/05/18 07:28:29;;;;;;;42.20;26.30;;;;;;;11.36;85.97;101151.94;5103329;28;20032;-63
2021/05/18 07:30:55;;;;;;;41.30;23.92;;;;;;;11.21;89.29;101150.97;5099864;28;20024;-63
2021/05/18 07:33:20;;;;;;;40.67;23.80;;;;;;;11.04;89.47;101147.31;5107008;28;20034;-63
2021/05/18 07:35:46;;;;;;;42.95;24.15;;;;;;;11.02;90.50;101155.25;5102282;28;20502;-63
2021/05/18 07:38:11;;;;;;;41.70;24.48;;;;;;;10.85;91.16;101160.44;5105307;28;20444;-63
2021/05/18 07:40:37;;;;;;;41.08;25.90;;;;;;;10.86;92.12;101169.25;5105524;28;20054;-63
2021/05/18 07:43:04;;;;;;;42.42;25.17;;;;;;;10.95;91.98;101169.31;5104170;28;20035;-63
2021/05/18 07:45:30;;;;;;;40.42;25.45;;;;;;;11.13;89.45;101166.81;5106363;28;20032;-63
2021/05/18 07:48:10;;;;;;;42.15;26.23;;;;;;;11.32;92.08;101166.94;5103520;28;20596;-63
2021/05/18 08:06:46;;;;;;;39.58;23.73;;;;;;;11.32;85.91;101165.16;5088490;28;20063;-63
2021/05/18 08:09:11;;;;;;;37.88;25.20;;;;;;;11.31;83.42;101181.94;5089493;28;20043;-63
2021/05/18 08:11:36;;;;;;;41.47;25.42;;;;;;;11.43;87.71;101164.34;5088988;28;20040;-62
2021/05/18 08:14:02;;;;;;;39.15;25.38;;;;;;;11.75;83.76;101153.94;5094202;28;20103;-63
2021/05/18 10:36:02;;;;;;;33.30;20.17;;;;;;;15.98;70.51;101167.34;5100357;28;20111;-68
2021/05/18 10:38:44;;;;;;;33.58;22.20;;;;;;;17.04;71.32;101167.56;5097547;28;20032;-67
2021/05/18 10:41:16;;;;;;;33.47;22.45;;;;;;;18.27;69.87;101170.47;5101911;28;20099;-67
2021/05/18 10:43:43;;;;;;;32.63;21.55;;;;;;;18.41;63.92;101167.50;5102758;28;20024;-70
2021/05/18 10:46:14;;;;;;;33.47;22.35;;;;;;;17.34;57.24;101176.81;5102032;28;20074;-70
2021/05/18 10:48:40;;;;;;;33.88;22.65;;;;;;;15.41;65.58;101168.00;5102641;28;20031;-71
2021/05/18 10:51:43;;;;;;;33.95;23.77;;;;;;;14.34;70.29;101176.78;5095778;28;20027;-72
2021/05/18 10:54:11;;;;;;;;;;;;;;;13.28;79.81;101178.06;5089525;28;20085;-67
2021/05/18 10:56:55;;;;;;;40.28;30.05;;;;;;;12.53;87.52;101166.53;5092942;28;19988;-66
2021/05/18 10:59:24;;;;;;;39.35;28.63;;;;;;;13.13;82.67;101170.97;5090716;28;20028;-70
2021/05/18 11:02:05;;;;;;;39.25;29.17;;;;;;;15.19;76.53;101168.22;5095332;28;20378;-68
2021/05/18 11:04:33;;;;;;;37.13;26.75;;;;;;;16.15;64.45;101156.44;5091457;28;20379;-71
2021/05/18 11:07:00;;;;;;;32.92;23.33;;;;;;;16.31;59.53;101149.09;5085905;28;20051;-68
2021/05/18 11:09:27;;;;;;;33.95;23.45;;;;;;;18.01;60.25;101152.34;5091947;28;20097;-71
2021/05/18 11:12:01;;;;;;;30.65;20.80;;;;;;;19.24;52.50;101147.66;5090993;28;20028;-71
2021/05/18 11:14:39;;;;;;;28.52;18.52;;;;;;;19.73;50.84;101143.59;5096318;28;20157;-71
2021/05/18 11:17:14;;;;;;;28.73;19.38;;;;;;;18.42;51.31;101142.50;5094238;28;20058;-69
2021/05/18 11:19:57;;;;;;;30.13;20.40;;;;;;;17.42;55.93;101148.16;5097646;28;20028;-69
2021/05/18 11:25:08;;;;;;;29.70;19.05;;;;;;;16.58;62.42;101158.50;5095300;28;20095;-69
2021/05/18 11:27:33;;;;;;;28.77;18.27;;;;;;;16.52;58.64;101155.91;5093660;28;20112;-69
2021/05/18 11:29:59;;;;;;;29.42;18.10;;;;;;;16.76;60.40;101168.00;5095344;28;20538;-65
2021/05/18 11:32:24;;;;;;;28.20;16.13;;;;;;;16.60;56.90;101171.81;5094572;28;20054;-71
2021/05/18 11:34:57;;;;;;;27.08;14.90;;;;;;;15.88;59.29;101163.91;5092938;28;20024;-70
2021/05/18 11:37:23;;;;;;;27.75;17.00;;;;;;;15.67;62.57;101168.56;5094180;28;20032;-73
2021/05/18 11:39:49;;;;;;;26.60;14.98;;;;;;;16.55;58.97;101164.75;5094176;28;20031;-71
2021/05/18 11:42:29;;;;;;;25.92;13.23;;;;;;;19.43;51.32;101158.75;5094343;28;20024;-70
2021/05/18 11:45:24;;;;;;;24.92;12.68;;;;;;;21.21;49.26;101163.09;5093825;28;20027;-72
2021/05/18 11:47:51;;;;;;;23.33;11.82;;;;;;;19.56;48.05;101165.53;5030467;28;20044;-67
2021/05/18 11:50:25;;;;;;;23.38;11.70;;;;;;;17.87;49.26;101165.13;5030174;28;20034;-69
2021/05/18 11:52:53;;;;;;;25.08;11.98;;;;;;;16.98;55.26;101171.22;5030613;28;20164;-67
2021/05/18 11:55:28;;;;;;;23.38;12.00;;;;;;;17.28;53.37;101165.38;5025516;28;20034;-65
2021/05/18 11:57:55;;;;;;;22.98;11.48;;;;;;;18.99;47.15;101167.06;5030917;28;20045;-70
2021/05/18 12:00:26;;;;;;;23.15;10.50;;;;;;;21.15;42.26;101152.56;5030641;28;20061;-70
2021/05/18 12:03:05;;;;;;;21.90;10.18;;;;;;;22.76;41.54;101159.94;5029410;28;20029;-68
2021/05/18 12:05:32;;;;;;;22.77;10.70;;;;;;;22.50;36.06;101161.94;5030118;28;20042;-68
2021/05/18 12:07:58;;;;;;;23.50;10.32;;;;;;;22.48;40.53;101163.78;5030678;28;20172;-72
2021/05/18 12:10:31;;;;;;;25.33;11.93;;;;;;;21.32;40.09;101149.28;5030538;28;20041;-71
2021/05/18 12:12:57;;;;;;;23.70;11.63;;;;;;;20.84;39.91;101163.50;5030827;28;20040;-64
2021/05/18 12:15:23;;;;;;;23.00;11.80;;;;;;;22.40;37.23;101149.78;5030471;28;20025;-64
2021/05/18 12:17:52;;;;;;;23.77;11.52;;;;;;;23.62;34.33;101155.38;5029726;28;20053;-64
2021/05/18 12:20:17;;;;;;;24.25;11.35;;;;;;;23.25;33.77;101157.03;5031294;28;20025;-64
2021/05/18 12:22:44;;;;;;;24.80;10.45;;;;;;;23.03;35.36;101173.22;5031400;28;20033;-64
2021/05/18 12:25:26;;;;;;;27.65;10.50;;;;;;;22.06;35.32;101167.19;5095487;28;20071;-64
2021/05/18 12:27:52;;;;;;;23.95;11.30;;;;;;;21.25;36.82;101153.13;5099651;28;20054;-64
2021/05/18 12:30:18;;;;;;;22.98;9.70;;;;;;;21.78;35.06;101162.88;5105986;28;20517;-64
2021/05/18 12:32:47;;;;;;;20.42;8.00;;;;;;;21.54;33.44;101157.47;5090426;28;20028;-66
2021/05/18 12:35:22;;;;;;;21.55;8.00;;;;;;;22.51;34.53;101157.41;5092654;28;20068;-64
2021/05/18 12:37:49;;;;;;;21.15;8.50;;;;;;;23.29;32.14;101153.25;5090898;28;20020;-65
2021/05/18 12:40:19;;;;;;;22.98;8.80;;;;;;;23.40;32.99;101159.06;5093360;28;20085;-66
2021/05/18 12:42:46;;;;;;;22.30;8.30;;;;;;;24.59;29.35;101152.66;5090850;28;20107;-65
2021/05/18 12:45:20;;;;;;;20.52;7.50;;;;;;;24.11;30.74;101160.34;5096535;28;20403;-64
2021/05/18 12:47:55;;;;;;;21.50;8.15;;;;;;;23.58;30.98;101165.44;5092069;28;20028;-62
2021/05/18 12:50:21;;;;;;;21.98;7.40;;;;;;;23.84;30.12;101166.94;5090692;28;20032;-62
2021/05/18 12:52:51;;;;;;;19.83;7.18;;;;;;;24.05;31.54;101161.50;5091867;28;20035;-62
2021/05/18 12:55:23;;;;;;;21.88;7.85;;;;;;;24.63;29.66;101147.03;5092029;28;20046;-62
2021/05/18 12:57:53;;;;;;;20.80;6.75;;;;;;;25.11;26.97;101168.09;5093529;28;20024;-64
2021/05/18 13:00:44;;;;;;;22.13;7.25;;;;;;;22.66;32.06;101163.97;5092361;28;20479;-64
2021/05/18 13:03:20;;;;;;;20.70;7.25;;;;;;;20.89;35.71;101180.31;5092311;28;20032;-64
2021/05/18 13:05:48;;;;;;;21.50;8.10;;;;;;;19.85;37.55;101172.75;5092160;28;20043;-64
2021/05/18 13:08:29;;;;;;;20.88;7.80;;;;;;;22.17;34.95;101167.66;5091050;28;20062;-64
2021/05/18 13:13:37;;;;;;;21.70;8.02;;;;;;;23.03;31.95;101189.41;5101716;28;20039;-64
2021/05/18 13:16:18;;;;;;;20.85;7.25;;;;;;;23.26;33.73;101183.91;5097408;28;20032;-64
2021/05/18 13:19:00;;;;;;;20.95;7.70;;;;;;;22.68;34.30;101180.97;5099989;28;20024;-64
2021/05/18 13:21:29;;;;;;;22.20;8.80;;;;;;;22.57;33.87;101190.38;5102257;28;20449;-64
2021/05/18 13:26:27;;;;;;;21.45;7.82;;;;;;;21.52;36.18;101179.97;5102859;28;20115;-64
2021/05/18 13:29:15;;;;;;;22.00;7.30;;;;;;;22.45;35.86;101180.97;5103918;28;20024;-64
2021/05/18 13:31:40;;;;;;;20.35;6.05;;;;;;;23.61;30.93;101170.69;5098879;28;20024;-64
2021/05/18 13:34:07;;;;;;;19.85;6.70;;;;;;;24.27;30.81;101168.59;5104630;28;20034;-64
2021/05/18 13:36:34;;;;;;;19.55;6.82;;;;;;;24.77;30.45;101183.31;5097538;28;20027;-64
2021/05/18 13:39:05;;;;;;;19.23;6.35;;;;;;;25.38;29.83;101180.22;5104881;28;20022;-64
2021/05/18 13:41:31;;;;;;;19.80;6.10;;;;;;;26.74;28.04;101189.03;5089710;28;20501;-64
2021/05/18 13:43:56;;;;;;;20.58;5.90;;;;;;;26.78;23.97;101174.34;5094834;28;20052;-65
2021/05/18 13:46:21;;;;;;;20.00;6.50;;;;;;;26.23;25.68;101170.22;5093151;28;20028;-65
2021/05/18 13:48:47;;;;;;;20.10;6.57;;;;;;;26.47;28.77;101179.75;5092076;28;20031;-64
2021/05/18 13:51:16;;;;;;;19.13;5.72;;;;;;;27.35;27.16;101180.94;5091276;28;20103;-67
2021/05/18 13:53:42;;;;;;;18.85;6.05;;;;;;;27.32;26.02;101183.81;5090256;28;20027;-64
2021/05/18 13:56:09;;;;;;;18.75;6.30;;;;;;;26.70;26.31;101181.16;5087903;28;20028;-65
2021/05/18 13:58:35;;;;;;;19.55;5.80;;;;;;;27.45;25.36;101179.41;5088229;28;20119;-65
2021/05/18 14:01:05;;;;;;;19.50;5.78;;;;;;;27.58;25.79;101184.97;5091497;28;20116;-64
2021/05/18 14:03:31;;;;;;;19.90;6.50;;;;;;;26.63;25.45;101199.56;5092336;28;20024;-65
2021/05/18 14:05:56;;;;;;;18.38;5.38;;;;;;;25.74;26.68;101181.88;5091870;28;20024;-64
2021/05/18 14:08:33;;;;;;;18.60;5.50;;;;;;;26.24;27.19;101190.94;5090381;28;20073;-64
2021/05/18 14:11:06;;;;;;;19.60;6.00;;;;;;;27.03;26.43;101197.28;5092644;28;20451;-65
2021/05/18 14:13:34;;;;;;;20.08;5.55;;;;;;;27.74;24.96;101192.13;5089184;28;20024;-65
2021/05/18 14:16:01;;;;;;;20.88;5.80;;;;;;;27.01;25.89;101187.50;5092159;28;20031;-64
2021/05/18 14:18:27;;;;;;;21.05;5.72;;;;;;;26.25;26.64;101194.50;5091372;28;20051;-64
2021/05/18 14:20:53;;;;;;;19.70;6.00;;;;;;;25.11;27.94;101187.03;5091577;28;20051;-64
2021/05/18 14:23:27;;;;;;;19.70;5.63;;;;;;;25.55;27.96;101200.09;5093011;28;20048;-65
2021/05/18 14:25:54;;;;;;;18.10;5.60;;;;;;;26.13;27.68;101187.94;5091786;28;20035;-66
2021/05/18 14:28:20;;;;;;;17.80;5.93;;;;;;;25.51;28.16;101187.66;5091027;28;20032;-65
2021/05/18 14:30:46;;;;;;;20.33;5.90;;;;;;;24.16;29.33;101198.84;5091962;28;20065;-64
2021/05/18 14:33:11;;;;;;;20.67;6.07;;;;;;;25.25;28.30;101192.56;5090353;28;20024;-65
2021/05/18 14:35:36;;;;;;;18.60;5.20;;;;;;;26.34;26.11;101185.84;5091693;28;20034;-64
2021/05/18 14:38:17;;;;;;;20.15;5.28;;;;;;;26.40;25.10;101204.50;5090857;28;20094;-62
2021/05/18 14:42:47;;;;;;;19.58;5.85;;;;;;;24.37;27.95;101197.78;5088346;28;20026;-65
2021/05/18 14:46:25;;;;;;;17.25;4.82;;;;;;;22.76;30.88;101193.19;5091091;28;20554;-63
2021/05/18 14:56:49;;;;;;;18.30;5.57;;;;;;;23.70;28.90;101187.41;5099161;28;20501;-64
2021/05/18 14:59:14;;;;;;;19.00;5.03;;;;;;;23.53;29.98;101194.44;5094445;28;20032;-63
2021/05/18 15:01:39;;;;;;;19.13;5.20;;;;;;;23.92;29.04;101187.34;5095244;28;20028;-63
2021/05/18 15:04:05;;;;;;;19.00;5.57;;;;;;;23.57;29.01;101201.44;5093735;28;20032;-63
2021/05/18 15:06:31;;;;;;;21.50;5.90;;;;;;;24.96;28.09;101203.06;5099031;28;20031;-64
2021/05/18 15:08:57;;;;;;;19.15;5.32;;;;;;;26.58;26.26;101209.84;5093956;28;20047;-62
2021/05/18 15:11:22;;;;;;;18.67;5.95;;;;;;;26.31;24.64;101202.28;5094888;28;20540;-62
2021/05/18 15:13:47;;;;;;;18.90;5.30;;;;;;;25.81;26.72;101203.22;5093132;28;20077;-63
2021/05/18 15:16:13;;;;;;;18.38;5.07;;;;;;;24.97;27.02;101210.22;5095006;28;20086;-62
2021/05/18 15:18:38;;;;;;;18.95;5.70;;;;;;;24.65;28.51;101206.41;5092846;28;20028;-62
2021/05/18 15:21:04;;;;;;;20.13;5.47;;;;;;;25.66;27.57;101203.09;5095303;28;20020;-62
2021/05/18 15:23:29;;;;;;;19.88;5.82;;;;;;;26.90;25.12;101207.97;5094047;28;20028;-62
2021/05/18 15:25:56;;;;;;;20.33;6.05;;;;;;;27.07;24.83;101215.13;5093069;28;20069;-62
2021/05/18 15:28:21;;;;;;;20.95;5.88;;;;;;;26.45;24.88;101218.66;5094784;28;20115;-62
2021/05/18 15:30:46;;;;;;;18.17;5.28;;;;;;;26.64;25.77;101222.16;5092729;28;20024;-62
2021/05/18 15:33:12;;;;;;;16.95;5.05;;;;;;;27.59;24.94;101223.81;5092698;28;20020;-62
2021/05/18 15:35:37;;;;;;;19.58;6.20;;;;;;;28.63;23.41;101223.63;5103293;28;20419;-62
2021/05/18 15:38:03;;;;;;;18.45;5.15;;;;;;;28.42;22.91;101226.75;5106129;28;20055;-62
2021/05/18 15:40:29;;;;;;;17.75;5.28;;;;;;;27.93;23.06;101224.44;5104513;28;20080;-62
2021/05/18 15:42:54;;;;;;;19.30;5.93;;;;;;;26.67;24.65;101236.41;5104510;28;20028;-62
2021/05/18 15:45:20;;;;;;;18.85;5.95;;;;;;;24.40;25.33;101225.63;5105955;28;20062;-62
2021/05/18 15:47:45;;;;;;;19.20;6.80;;;;;;;21.81;30.06;101237.22;5103538;28;20115;-62
2021/05/18 15:50:12;;;;;;;18.60;6.25;;;;;;;22.50;30.17;101242.72;5106474;28;20023;-62
2021/05/18 15:52:38;;;;;;;19.50;6.00;;;;;;;22.75;29.63;101244.44;5103419;28;20056;-62
2021/05/18 15:55:04;;;;;;;18.60;6.20;;;;;;;22.54;29.34;101240.78;5105852;28;20059;-62
2021/05/18 15:57:30;;;;;;;18.73;5.50;;;;;;;23.62;28.64;101234.50;5103892;28;20056;-62
2021/05/18 15:59:55;;;;;;;16.65;4.90;;;;;;;23.61;27.65;101238.13;5104804;28;20494;-62
2021/05/18 16:02:21;;;;;;;17.20;5.00;;;;;;;24.99;27.21;101247.97;5105684;28;20069;-62
2021/05/18 16:04:46;;;;;;;16.77;4.97;;;;;;;25.69;27.13;101242.66;5103440;28;20084;-62
2021/05/18 16:07:14;;;;;;;16.52;4.50;;;;;;;26.54;25.20;101246.19;5106204;28;20034;-62
2021/05/18 16:09:39;;;;;;;17.65;4.25;;;;;;;27.59;24.03;101253.69;5102736;28;20067;-62
2021/05/18 16:12:07;;;;;;;16.98;4.93;;;;;;;27.01;22.02;101252.59;5105889;28;20490;-63
2021/05/18 16:14:33;;;;;;;16.33;4.88;;;;;;;24.90;24.98;101257.44;5103905;28;20098;-62
2021/05/18 16:16:58;;;;;;;18.40;5.20;;;;;;;24.79;26.53;101259.81;5104967;28;20515;-62
2021/05/18 16:19:23;;;;;;;18.42;5.50;;;;;;;26.40;25.00;101244.25;5105054;28;20019;-62